sensor_id;sensor_type;location;lat;lon;timestamp;P1;durP1;ratioP1;P2;durP2;ratioP2
18879;SDS011;9572;52.378;13.404;2023-11-19T00:00:30;9.13;;;6.37;;
18879;SDS011;9572;52.378;13.404;2023-11-19T00:02:57;10.30;;;6.57;;
18879;SDS011;9572;52.378;13.404;2023-11-19T00:05:24;8.33;;;6.10;;
18879;SDS011;9572;52.378;13.404;2023-11-19T00:07:51;10.33;;;5.93;;
18879;SDS011;9572;52.378;13.404;2023-11-19T00:10:19;8.93;;;5.70;;
18879;SDS011;9572;52.378;13.404;2023-11-19T00:12:47;7.27;;;5.87;;
18879;SDS011;9572;52.378;13.404;2023-11-19T00:15:14;8.93;;;5.87;;
18879;SDS011;9572;52.378;13.404;2023-11-19T00:17:44;9.37;;;6.00;;
18879;SDS011;9572;52.378;13.404;2023-11-19T00:20:11;8.80;;;5.50;;
18879;SDS011;9572;52.378;13.404;2023-11-19T00:22:38;8.63;;;5.77;;
18879;SDS011;9572;52.378;13.404;2023-11-19T00:25:06;9.43;;;5.73;;
18879;SDS011;9572;52.378;13.404;2023-11-19T00:27:35;7.00;;;5.63;;
18879;SDS011;9572;52.378;13.404;2023-11-19T00:30:03;11.07;;;6.13;;
18879;SDS011;9572;52.378;13.404;2023-11-19T00:32:31;7.33;;;5.97;;
18879;SDS011;9572;52.378;13.404;2023-11-19T00:34:58;7.80;;;5.43;;
18879;SDS011;9572;52.378;13.404;2023-11-19T00:37:25;11.47;;;5.67;;
18879;SDS011;9572;52.378;13.404;2023-11-19T00:39:52;6.80;;;5.37;;
18879;SDS011;9572;52.378;13.404;2023-11-19T00:42:21;7.17;;;5.47;;
18879;SDS011;9572;52.378;13.404;2023-11-19T00:44:50;6.90;;;5.27;;
18879;SDS011;9572;52.378;13.404;2023-11-19T00:47:17;10.27;;;5.53;;
18879;SDS011;9572;52.378;13.404;2023-11-19T00:49:45;6.90;;;4.87;;
18879;SDS011;9572;52.378;13.404;2023-11-19T00:52:13;8.57;;;5.40;;
18879;SDS011;9572;52.378;13.404;2023-11-19T00:54:40;7.23;;;5.23;;
18879;SDS011;9572;52.378;13.404;2023-11-19T00:57:07;8.43;;;5.43;;
18879;SDS011;9572;52.378;13.404;2023-11-19T00:59:34;10.60;;;5.53;;
18879;SDS011;9572;52.378;13.404;2023-11-19T01:02:02;8.20;;;5.20;;
18879;SDS011;9572;52.378;13.404;2023-11-19T01:04:32;8.07;;;5.27;;
18879;SDS011;9572;52.378;13.404;2023-11-19T01:06:59;8.20;;;5.37;;
18879;SDS011;9572;52.378;13.404;2023-11-19T01:09:28;8.17;;;5.33;;
18879;SDS011;9572;52.378;13.404;2023-11-19T01:11:57;10.67;;;5.77;;
18879;SDS011;9572;52.378;13.404;2023-11-19T01:14:25;9.53;;;5.33;;
18879;SDS011;9572;52.378;13.404;2023-11-19T01:16:52;7.20;;;5.33;;
18879;SDS011;9572;52.378;13.404;2023-11-19T01:19:21;7.23;;;5.13;;
18879;SDS011;9572;52.378;13.404;2023-11-19T01:21:49;6.67;;;5.00;;
18879;SDS011;9572;52.378;13.404;2023-11-19T01:24:16;6.40;;;4.70;;
18879;SDS011;9572;52.378;13.404;2023-11-19T01:26:43;7.70;;;5.50;;
18879;SDS011;9572;52.378;13.404;2023-11-19T01:29:10;7.63;;;5.13;;
18879;SDS011;9572;52.378;13.404;2023-11-19T01:31:39;7.03;;;5.10;;
18879;SDS011;9572;52.378;13.404;2023-11-19T01:34:05;8.57;;;5.20;;
18879;SDS011;9572;52.378;13.404;2023-11-19T01:36:34;7.50;;;5.00;;
18879;SDS011;9572;52.378;13.404;2023-11-19T01:39:01;9.90;;;5.50;;
18879;SDS011;9572;52.378;13.404;2023-11-19T01:41:29;9.00;;;5.30;;
18879;SDS011;9572;52.378;13.404;2023-11-19T01:43:56;8.00;;;5.33;;
18879;SDS011;9572;52.378;13.404;2023-11-19T01:46:24;7.80;;;5.13;;
18879;SDS011;9572;52.378;13.404;2023-11-19T01:48:51;9.33;;;5.13;;
18879;SDS011;9572;52.378;13.404;2023-11-19T01:51:19;8.73;;;4.97;;
18879;SDS011;9572;52.378;13.404;2023-11-19T01:53:49;6.33;;;4.87;;
18879;SDS011;9572;52.378;13.404;2023-11-19T01:56:16;6.47;;;5.20;;
18879;SDS011;9572;52.378;13.404;2023-11-19T01:58:44;5.33;;;4.60;;
18879;SDS011;9572;52.378;13.404;2023-11-19T02:01:12;7.27;;;4.90;;
18879;SDS011;9572;52.378;13.404;2023-11-19T02:03:39;7.37;;;5.40;;
18879;SDS011;9572;52.378;13.404;2023-11-19T02:06:07;8.57;;;5.60;;
18879;SDS011;9572;52.378;13.404;2023-11-19T02:08:35;6.60;;;5.13;;
18879;SDS011;9572;52.378;13.404;2023-11-19T02:11:04;8.33;;;5.20;;
18879;SDS011;9572;52.378;13.404;2023-11-19T02:13:32;10.17;;;5.20;;
18879;SDS011;9572;52.378;13.404;2023-11-19T02:16:01;7.07;;;4.90;;
18879;SDS011;9572;52.378;13.404;2023-11-19T02:18:28;9.33;;;5.00;;
18879;SDS011;9572;52.378;13.404;2023-11-19T02:20:55;6.67;;;4.60;;
18879;SDS011;9572;52.378;13.404;2023-11-19T02:23:22;6.93;;;5.07;;
18879;SDS011;9572;52.378;13.404;2023-11-19T02:25:54;6.57;;;4.87;;
18879;SDS011;9572;52.378;13.404;2023-11-19T02:28:37;7.67;;;5.07;;
18879;SDS011;9572;52.378;13.404;2023-11-19T02:31:05;6.33;;;4.70;;
18879;SDS011;9572;52.378;13.404;2023-11-19T02:33:34;13.13;;;5.20;;
18879;SDS011;9572;52.378;13.404;2023-11-19T02:36:01;7.87;;;5.30;;
18879;SDS011;9572;52.378;13.404;2023-11-19T02:38:28;5.93;;;4.27;;
18879;SDS011;9572;52.378;13.404;2023-11-19T02:40:55;7.30;;;4.90;;
18879;SDS011;9572;52.378;13.404;2023-11-19T02:43:22;6.90;;;4.43;;
18879;SDS011;9572;52.378;13.404;2023-11-19T02:45:51;7.53;;;4.73;;
18879;SDS011;9572;52.378;13.404;2023-11-19T02:48:20;7.40;;;4.33;;
18879;SDS011;9572;52.378;13.404;2023-11-19T02:50:47;7.33;;;4.67;;
18879;SDS011;9572;52.378;13.404;2023-11-19T02:53:14;6.93;;;4.57;;
18879;SDS011;9572;52.378;13.404;2023-11-19T02:55:42;5.80;;;4.47;;
18879;SDS011;9572;52.378;13.404;2023-11-19T02:58:13;5.93;;;4.23;;
18879;SDS011;9572;52.378;13.404;2023-11-19T03:00:48;5.63;;;4.10;;
18879;SDS011;9572;52.378;13.404;2023-11-19T03:03:22;6.83;;;4.30;;
18879;SDS011;9572;52.378;13.404;2023-11-19T03:05:54;5.77;;;3.80;;
18879;SDS011;9572;52.378;13.404;2023-11-19T03:08:20;5.30;;;3.80;;
18879;SDS011;9572;52.378;13.404;2023-11-19T03:10:48;7.97;;;4.27;;
18879;SDS011;9572;52.378;13.404;2023-11-19T03:13:15;6.17;;;4.20;;
18879;SDS011;9572;52.378;13.404;2023-11-19T03:15:43;5.53;;;4.17;;
18879;SDS011;9572;52.378;13.404;2023-11-19T03:18:11;5.10;;;3.93;;
18879;SDS011;9572;52.378;13.404;2023-11-19T03:20:38;6.27;;;4.20;;
18879;SDS011;9572;52.378;13.404;2023-11-19T03:23:05;4.77;;;3.67;;
18879;SDS011;9572;52.378;13.404;2023-11-19T03:25:32;7.80;;;3.93;;
18879;SDS011;9572;52.378;13.404;2023-11-19T03:27:59;6.90;;;3.87;;
18879;SDS011;9572;52.378;13.404;2023-11-19T03:30:27;4.87;;;3.53;;
18879;SDS011;9572;52.378;13.404;2023-11-19T03:32:54;5.90;;;3.70;;
18879;SDS011;9572;52.378;13.404;2023-11-19T03:35:23;5.10;;;3.93;;
18879;SDS011;9572;52.378;13.404;2023-11-19T03:37:50;7.00;;;4.20;;
18879;SDS011;9572;52.378;13.404;2023-11-19T03:40:17;7.93;;;4.87;;
18879;SDS011;9572;52.378;13.404;2023-11-19T03:42:45;5.03;;;3.60;;
18879;SDS011;9572;52.378;13.404;2023-11-19T03:45:12;5.17;;;3.90;;
18879;SDS011;9572;52.378;13.404;2023-11-19T03:47:39;9.20;;;4.60;;
18879;SDS011;9572;52.378;13.404;2023-11-19T03:50:06;6.17;;;4.07;;
18879;SDS011;9572;52.378;13.404;2023-11-19T03:52:36;5.50;;;4.40;;
18879;SDS011;9572;52.378;13.404;2023-11-19T03:55:04;6.27;;;4.60;;
18879;SDS011;9572;52.378;13.404;2023-11-19T03:57:33;6.43;;;4.57;;
18879;SDS011;9572;52.378;13.404;2023-11-19T04:00:00;9.57;;;4.73;;
18879;SDS011;9572;52.378;13.404;2023-11-19T04:02:33;6.43;;;4.50;;
18879;SDS011;9572;52.378;13.404;2023-11-19T04:05:00;5.50;;;4.07;;
18879;SDS011;9572;52.378;13.404;2023-11-19T04:07:28;6.07;;;4.77;;
18879;SDS011;9572;52.378;13.404;2023-11-19T04:09:56;6.50;;;4.30;;
18879;SDS011;9572;52.378;13.404;2023-11-19T04:12:23;6.67;;;4.67;;
18879;SDS011;9572;52.378;13.404;2023-11-19T04:14:50;10.10;;;4.80;;
18879;SDS011;9572;52.378;13.404;2023-11-19T04:17:17;6.93;;;4.43;;
18879;SDS011;9572;52.378;13.404;2023-11-19T04:19:44;6.33;;;4.60;;
18879;SDS011;9572;52.378;13.404;2023-11-19T04:22:11;7.43;;;4.90;;
18879;SDS011;9572;52.378;13.404;2023-11-19T04:24:38;8.90;;;5.07;;
18879;SDS011;9572;52.378;13.404;2023-11-19T04:27:07;8.47;;;4.50;;
18879;SDS011;9572;52.378;13.404;2023-11-19T04:29:34;6.90;;;5.23;;
18879;SDS011;9572;52.378;13.404;2023-11-19T04:32:01;7.77;;;4.90;;
18879;SDS011;9572;52.378;13.404;2023-11-19T04:34:30;6.87;;;5.00;;
18879;SDS011;9572;52.378;13.404;2023-11-19T04:36:58;6.13;;;4.77;;
18879;SDS011;9572;52.378;13.404;2023-11-19T04:39:27;8.70;;;5.50;;
18879;SDS011;9572;52.378;13.404;2023-11-19T04:41:54;8.83;;;5.00;;
18879;SDS011;9572;52.378;13.404;2023-11-19T04:44:23;7.17;;;5.17;;
18879;SDS011;9572;52.378;13.404;2023-11-19T04:46:50;7.87;;;5.70;;
18879;SDS011;9572;52.378;13.404;2023-11-19T04:49:17;7.77;;;5.20;;
18879;SDS011;9572;52.378;13.404;2023-11-19T04:51:44;6.83;;;5.13;;
18879;SDS011;9572;52.378;13.404;2023-11-19T04:54:12;7.30;;;5.40;;
18879;SDS011;9572;52.378;13.404;2023-11-19T04:56:39;7.33;;;4.97;;
18879;SDS011;9572;52.378;13.404;2023-11-19T04:59:06;8.73;;;5.23;;
18879;SDS011;9572;52.378;13.404;2023-11-19T05:01:35;6.10;;;5.07;;
18879;SDS011;9572;52.378;13.404;2023-11-19T05:04:02;13.13;;;6.10;;
18879;SDS011;9572;52.378;13.404;2023-11-19T05:06:30;8.30;;;5.90;;
18879;SDS011;9572;52.378;13.404;2023-11-19T05:08:59;9.70;;;5.50;;
18879;SDS011;9572;52.378;13.404;2023-11-19T05:11:28;8.20;;;6.27;;
18879;SDS011;9572;52.378;13.404;2023-11-19T05:13:56;8.70;;;5.67;;
18879;SDS011;9572;52.378;13.404;2023-11-19T05:16:22;9.37;;;5.57;;
18879;SDS011;9572;52.378;13.404;2023-11-19T05:18:51;9.60;;;5.50;;
18879;SDS011;9572;52.378;13.404;2023-11-19T05:21:18;9.97;;;5.50;;
18879;SDS011;9572;52.378;13.404;2023-11-19T05:23:45;9.27;;;5.30;;
18879;SDS011;9572;52.378;13.404;2023-11-19T05:26:17;11.37;;;6.00;;
18879;SDS011;9572;52.378;13.404;2023-11-19T05:28:45;8.17;;;5.37;;
18879;SDS011;9572;52.378;13.404;2023-11-19T05:31:12;9.10;;;5.50;;
18879;SDS011;9572;52.378;13.404;2023-11-19T05:33:40;8.00;;;5.50;;
18879;SDS011;9572;52.378;13.404;2023-11-19T05:36:10;8.40;;;6.03;;
18879;SDS011;9572;52.378;13.404;2023-11-19T05:38:38;8.43;;;5.47;;
18879;SDS011;9572;52.378;13.404;2023-11-19T05:41:05;9.53;;;5.63;;
18879;SDS011;9572;52.378;13.404;2023-11-19T05:43:32;8.00;;;5.70;;
18879;SDS011;9572;52.378;13.404;2023-11-19T05:46:01;7.20;;;5.43;;
18879;SDS011;9572;52.378;13.404;2023-11-19T05:48:29;6.63;;;5.10;;
18879;SDS011;9572;52.378;13.404;2023-11-19T05:50:56;7.77;;;5.30;;
18879;SDS011;9572;52.378;13.404;2023-11-19T05:53:25;8.47;;;5.17;;
18879;SDS011;9572;52.378;13.404;2023-11-19T05:55:52;8.17;;;5.77;;
18879;SDS011;9572;52.378;13.404;2023-11-19T05:58:22;7.83;;;5.40;;
18879;SDS011;9572;52.378;13.404;2023-11-19T06:00:53;7.10;;;5.03;;
18879;SDS011;9572;52.378;13.404;2023-11-19T06:03:20;7.17;;;5.13;;
18879;SDS011;9572;52.378;13.404;2023-11-19T06:05:47;6.93;;;5.00;;
18879;SDS011;9572;52.378;13.404;2023-11-19T06:08:14;7.67;;;5.17;;
18879;SDS011;9572;52.378;13.404;2023-11-19T06:10:43;8.70;;;5.50;;
18879;SDS011;9572;52.378;13.404;2023-11-19T06:13:12;8.70;;;5.63;;
18879;SDS011;9572;52.378;13.404;2023-11-19T06:15:40;8.03;;;5.77;;
18879;SDS011;9572;52.378;13.404;2023-11-19T06:18:08;7.47;;;5.53;;
18879;SDS011;9572;52.378;13.404;2023-11-19T06:20:36;8.47;;;5.50;;
18879;SDS011;9572;52.378;13.404;2023-11-19T06:23:03;6.13;;;5.10;;
18879;SDS011;9572;52.378;13.404;2023-11-19T06:25:30;7.20;;;5.37;;
18879;SDS011;9572;52.378;13.404;2023-11-19T06:28:03;7.43;;;5.20;;
18879;SDS011;9572;52.378;13.404;2023-11-19T06:30:30;9.47;;;5.37;;
18879;SDS011;9572;52.378;13.404;2023-11-19T06:32:57;6.30;;;5.10;;
18879;SDS011;9572;52.378;13.404;2023-11-19T06:35:24;7.83;;;5.10;;
18879;SDS011;9572;52.378;13.404;2023-11-19T06:37:51;8.30;;;5.10;;
18879;SDS011;9572;52.378;13.404;2023-11-19T06:40:18;6.43;;;4.80;;
18879;SDS011;9572;52.378;13.404;2023-11-19T06:42:45;6.43;;;4.93;;
18879;SDS011;9572;52.378;13.404;2023-11-19T06:45:14;9.30;;;5.17;;
18879;SDS011;9572;52.378;13.404;2023-11-19T06:47:41;8.73;;;4.90;;
18879;SDS011;9572;52.378;13.404;2023-11-19T06:50:08;6.47;;;4.90;;
18879;SDS011;9572;52.378;13.404;2023-11-19T06:52:37;7.83;;;5.33;;
18879;SDS011;9572;52.378;13.404;2023-11-19T06:55:05;8.80;;;4.40;;
18879;SDS011;9572;52.378;13.404;2023-11-19T06:57:32;6.67;;;5.03;;
18879;SDS011;9572;52.378;13.404;2023-11-19T06:59:59;6.13;;;4.77;;
18879;SDS011;9572;52.378;13.404;2023-11-19T07:02:28;6.40;;;4.70;;
18879;SDS011;9572;52.378;13.404;2023-11-19T07:04:55;6.60;;;4.87;;
18879;SDS011;9572;52.378;13.404;2023-11-19T07:07:22;7.30;;;5.00;;
18879;SDS011;9572;52.378;13.404;2023-11-19T07:09:50;6.40;;;4.23;;
18879;SDS011;9572;52.378;13.404;2023-11-19T07:12:18;6.23;;;4.90;;
18879;SDS011;9572;52.378;13.404;2023-11-19T07:14:44;5.17;;;4.33;;
18879;SDS011;9572;52.378;13.404;2023-11-19T07:17:11;6.53;;;4.57;;
18879;SDS011;9572;52.378;13.404;2023-11-19T07:19:40;6.47;;;4.97;;
18879;SDS011;9572;52.378;13.404;2023-11-19T07:22:07;7.13;;;4.60;;
18879;SDS011;9572;52.378;13.404;2023-11-19T07:24:34;5.50;;;4.20;;
18879;SDS011;9572;52.378;13.404;2023-11-19T07:27:01;6.43;;;4.23;;
18879;SDS011;9572;52.378;13.404;2023-11-19T07:29:29;5.33;;;4.10;;
18879;SDS011;9572;52.378;13.404;2023-11-19T07:31:56;4.23;;;3.80;;
18879;SDS011;9572;52.378;13.404;2023-11-19T07:34:23;6.57;;;3.87;;
18879;SDS011;9572;52.378;13.404;2023-11-19T07:36:52;6.60;;;3.60;;
18879;SDS011;9572;52.378;13.404;2023-11-19T07:39:22;5.43;;;4.30;;
18879;SDS011;9572;52.378;13.404;2023-11-19T07:41:49;4.90;;;3.90;;
18879;SDS011;9572;52.378;13.404;2023-11-19T07:44:16;5.20;;;4.10;;
18879;SDS011;9572;52.378;13.404;2023-11-19T07:46:43;5.57;;;4.43;;
18879;SDS011;9572;52.378;13.404;2023-11-19T07:49:10;4.17;;;3.67;;
18879;SDS011;9572;52.378;13.404;2023-11-19T07:51:38;4.90;;;4.10;;
18879;SDS011;9572;52.378;13.404;2023-11-19T07:54:08;5.93;;;4.33;;
18879;SDS011;9572;52.378;13.404;2023-11-19T07:56:35;5.50;;;4.17;;
18879;SDS011;9572;52.378;13.404;2023-11-19T07:59:02;7.37;;;4.63;;
18879;SDS011;9572;52.378;13.404;2023-11-19T08:01:29;3.90;;;3.17;;
18879;SDS011;9572;52.378;13.404;2023-11-19T08:03:56;5.37;;;3.70;;
18879;SDS011;9572;52.378;13.404;2023-11-19T08:06:23;7.23;;;4.67;;
18879;SDS011;9572;52.378;13.404;2023-11-19T08:08:50;5.47;;;4.00;;
18879;SDS011;9572;52.378;13.404;2023-11-19T08:11:18;4.00;;;3.30;;
18879;SDS011;9572;52.378;13.404;2023-11-19T08:13:46;4.73;;;3.63;;
18879;SDS011;9572;52.378;13.404;2023-11-19T08:16:13;5.20;;;3.70;;
18879;SDS011;9572;52.378;13.404;2023-11-19T08:18:41;5.30;;;3.97;;
18879;SDS011;9572;52.378;13.404;2023-11-19T08:21:09;5.30;;;3.50;;
18879;SDS011;9572;52.378;13.404;2023-11-19T08:23:37;4.60;;;3.23;;
18879;SDS011;9572;52.378;13.404;2023-11-19T08:26:04;3.63;;;2.90;;
18879;SDS011;9572;52.378;13.404;2023-11-19T08:28:33;61.23;;;36.70;;
18879;SDS011;9572;52.378;13.404;2023-11-19T08:31:00;4.20;;;3.40;;
18879;SDS011;9572;52.378;13.404;2023-11-19T08:33:29;3.43;;;2.87;;
18879;SDS011;9572;52.378;13.404;2023-11-19T08:35:56;3.20;;;2.60;;
18879;SDS011;9572;52.378;13.404;2023-11-19T08:38:23;3.37;;;2.80;;
18879;SDS011;9572;52.378;13.404;2023-11-19T08:40:50;3.17;;;2.60;;
18879;SDS011;9572;52.378;13.404;2023-11-19T08:43:18;4.57;;;2.60;;
18879;SDS011;9572;52.378;13.404;2023-11-19T08:45:46;2.70;;;2.47;;
18879;SDS011;9572;52.378;13.404;2023-11-19T08:48:13;6.33;;;2.63;;
18879;SDS011;9572;52.378;13.404;2023-11-19T08:50:40;3.57;;;2.33;;
18879;SDS011;9572;52.378;13.404;2023-11-19T08:53:07;2.77;;;2.40;;
18879;SDS011;9572;52.378;13.404;2023-11-19T08:55:34;3.20;;;2.70;;
18879;SDS011;9572;52.378;13.404;2023-11-19T08:58:02;3.97;;;2.60;;
18879;SDS011;9572;52.378;13.404;2023-11-19T09:00:28;2.57;;;2.27;;
18879;SDS011;9572;52.378;13.404;2023-11-19T09:02:59;3.90;;;2.80;;
18879;SDS011;9572;52.378;13.404;2023-11-19T09:05:25;3.23;;;2.37;;
18879;SDS011;9572;52.378;13.404;2023-11-19T09:07:52;2.47;;;2.27;;
18879;SDS011;9572;52.378;13.404;2023-11-19T09:10:19;5.27;;;2.60;;
18879;SDS011;9572;52.378;13.404;2023-11-19T09:12:46;4.10;;;2.53;;
18879;SDS011;9572;52.378;13.404;2023-11-19T09:15:13;3.40;;;2.70;;
18879;SDS011;9572;52.378;13.404;2023-11-19T09:17:40;3.70;;;2.57;;
18879;SDS011;9572;52.378;13.404;2023-11-19T09:20:10;3.20;;;2.43;;
18879;SDS011;9572;52.378;13.404;2023-11-19T09:22:40;3.63;;;3.00;;
18879;SDS011;9572;52.378;13.404;2023-11-19T09:25:07;4.13;;;3.07;;
18879;SDS011;9572;52.378;13.404;2023-11-19T09:27:34;5.97;;;2.70;;
18879;SDS011;9572;52.378;13.404;2023-11-19T09:30:01;3.73;;;2.60;;
18879;SDS011;9572;52.378;13.404;2023-11-19T09:32:29;4.00;;;2.77;;
18879;SDS011;9572;52.378;13.404;2023-11-19T09:34:56;3.70;;;2.60;;
18879;SDS011;9572;52.378;13.404;2023-11-19T09:37:24;3.63;;;2.63;;
18879;SDS011;9572;52.378;13.404;2023-11-19T09:39:51;3.63;;;2.77;;
18879;SDS011;9572;52.378;13.404;2023-11-19T09:42:18;2.47;;;2.23;;
18879;SDS011;9572;52.378;13.404;2023-11-19T09:44:45;2.17;;;1.70;;
18879;SDS011;9572;52.378;13.404;2023-11-19T09:47:14;2.93;;;1.80;;
18879;SDS011;9572;52.378;13.404;2023-11-19T09:49:43;3.37;;;1.70;;
18879;SDS011;9572;52.378;13.404;2023-11-19T09:52:10;2.80;;;2.17;;
18879;SDS011;9572;52.378;13.404;2023-11-19T09:54:39;4.13;;;1.70;;
18879;SDS011;9572;52.378;13.404;2023-11-19T09:57:06;3.93;;;1.90;;
18879;SDS011;9572;52.378;13.404;2023-11-19T09:59:35;2.83;;;1.43;;
18879;SDS011;9572;52.378;13.404;2023-11-19T10:02:04;5.10;;;1.60;;
18879;SDS011;9572;52.378;13.404;2023-11-19T10:04:33;3.70;;;1.53;;
18879;SDS011;9572;52.378;13.404;2023-11-19T10:07:02;5.53;;;1.87;;
18879;SDS011;9572;52.378;13.404;2023-11-19T10:09:29;3.70;;;1.50;;
18879;SDS011;9572;52.378;13.404;2023-11-19T10:11:58;5.10;;;1.50;;
18879;SDS011;9572;52.378;13.404;2023-11-19T10:14:24;2.83;;;1.40;;
18879;SDS011;9572;52.378;13.404;2023-11-19T10:16:54;4.33;;;1.27;;
18879;SDS011;9572;52.378;13.404;2023-11-19T10:19:21;5.37;;;1.33;;
18879;SDS011;9572;52.378;13.404;2023-11-19T10:21:48;3.80;;;1.40;;
18879;SDS011;9572;52.378;13.404;2023-11-19T10:24:15;5.60;;;1.47;;
18879;SDS011;9572;52.378;13.404;2023-11-19T10:26:42;2.60;;;1.10;;
18879;SDS011;9572;52.378;13.404;2023-11-19T10:29:11;7.90;;;1.50;;
18879;SDS011;9572;52.378;13.404;2023-11-19T10:31:39;6.22;;;1.45;;
18879;SDS011;9572;52.378;13.404;2023-11-19T10:34:13;7.40;;;1.80;;
18879;SDS011;9572;52.378;13.404;2023-11-19T10:36:51;3.77;;;1.40;;
18879;SDS011;9572;52.378;13.404;2023-11-19T10:39:18;6.67;;;1.33;;
18879;SDS011;9572;52.378;13.404;2023-11-19T10:41:46;3.27;;;1.20;;
18879;SDS011;9572;52.378;13.404;2023-11-19T10:44:14;8.18;;;1.42;;
18879;SDS011;9572;52.378;13.404;2023-11-19T10:46:58;4.85;;;1.30;;
18879;SDS011;9572;52.378;13.404;2023-11-19T10:49:27;3.90;;;1.35;;
18879;SDS011;9572;52.378;13.404;2023-11-19T10:51:54;6.00;;;1.63;;
18879;SDS011;9572;52.378;13.404;2023-11-19T10:54:23;3.73;;;1.47;;
18879;SDS011;9572;52.378;13.404;2023-11-19T10:56:55;5.28;;;1.20;;
18879;SDS011;9572;52.378;13.404;2023-11-19T10:59:28;8.98;;;1.75;;
18879;SDS011;9572;52.378;13.404;2023-11-19T11:01:56;3.95;;;1.70;;
18879;SDS011;9572;52.378;13.404;2023-11-19T11:04:24;7.47;;;1.50;;
18879;SDS011;9572;52.378;13.404;2023-11-19T11:06:53;5.75;;;1.77;;
18879;SDS011;9572;52.378;13.404;2023-11-19T11:09:21;11.27;;;1.77;;
18879;SDS011;9572;52.378;13.404;2023-11-19T11:11:48;6.63;;;1.70;;
18879;SDS011;9572;52.378;13.404;2023-11-19T11:14:18;6.72;;;1.75;;
18879;SDS011;9572;52.378;13.404;2023-11-19T11:16:49;8.68;;;2.00;;
18879;SDS011;9572;52.378;13.404;2023-11-19T11:19:17;6.63;;;1.80;;
18879;SDS011;9572;52.378;13.404;2023-11-19T11:21:45;8.93;;;2.03;;
18879;SDS011;9572;52.378;13.404;2023-11-19T11:24:21;9.90;;;2.90;;
18879;SDS011;9572;52.378;13.404;2023-11-19T11:27:13;12.82;;;2.28;;
18879;SDS011;9572;52.378;13.404;2023-11-19T11:30:01;8.02;;;2.58;;
18879;SDS011;9572;52.378;13.404;2023-11-19T11:32:41;16.48;;;2.40;;
18879;SDS011;9572;52.378;13.404;2023-11-19T11:35:14;9.02;;;3.05;;
18879;SDS011;9572;52.378;13.404;2023-11-19T11:38:00;14.93;;;2.88;;
18879;SDS011;9572;52.378;13.404;2023-11-19T11:40:29;11.35;;;2.75;;
18879;SDS011;9572;52.378;13.404;2023-11-19T11:42:56;10.82;;;2.92;;
18879;SDS011;9572;52.378;13.404;2023-11-19T11:45:34;13.00;;;2.65;;
18879;SDS011;9572;52.378;13.404;2023-11-19T11:48:13;15.38;;;3.47;;
18879;SDS011;9572;52.378;13.404;2023-11-19T11:50:52;19.60;;;2.63;;
18879;SDS011;9572;52.378;13.404;2023-11-19T11:53:20;11.98;;;2.55;;
18879;SDS011;9572;52.378;13.404;2023-11-19T11:55:53;14.10;;;2.78;;
18879;SDS011;9572;52.378;13.404;2023-11-19T11:58:25;12.75;;;3.10;;
18879;SDS011;9572;52.378;13.404;2023-11-19T12:00:56;8.75;;;2.22;;
18879;SDS011;9572;52.378;13.404;2023-11-19T12:03:26;12.25;;;2.80;;
18879;SDS011;9572;52.378;13.404;2023-11-19T12:05:54;16.85;;;3.03;;
18879;SDS011;9572;52.378;13.404;2023-11-19T12:08:24;14.18;;;3.20;;
18879;SDS011;9572;52.378;13.404;2023-11-19T12:10:53;6.90;;;2.25;;
18879;SDS011;9572;52.378;13.404;2023-11-19T12:13:23;18.15;;;2.70;;
18879;SDS011;9572;52.378;13.404;2023-11-19T12:16:09;13.40;;;3.30;;
18879;SDS011;9572;52.378;13.404;2023-11-19T12:18:39;7.28;;;2.50;;
18879;SDS011;9572;52.378;13.404;2023-11-19T12:21:10;10.18;;;2.83;;
18879;SDS011;9572;52.378;13.404;2023-11-19T12:23:43;9.63;;;2.72;;
18879;SDS011;9572;52.378;13.404;2023-11-19T12:29:04;7.97;;;2.40;;
18879;SDS011;9572;52.378;13.404;2023-11-19T12:31:32;11.55;;;2.80;;
18879;SDS011;9572;52.378;13.404;2023-11-19T12:34:08;17.20;;;3.10;;
18879;SDS011;9572;52.378;13.404;2023-11-19T12:36:44;11.20;;;3.38;;
18879;SDS011;9572;52.378;13.404;2023-11-19T12:39:11;18.10;;;3.58;;
18879;SDS011;9572;52.378;13.404;2023-11-19T12:41:49;19.80;;;3.40;;
18879;SDS011;9572;52.378;13.404;2023-11-19T12:44:24;16.15;;;2.75;;
18879;SDS011;9572;52.378;13.404;2023-11-19T12:47:04;18.80;;;3.63;;
18879;SDS011;9572;52.378;13.404;2023-11-19T12:49:38;12.48;;;3.72;;
18879;SDS011;9572;52.378;13.404;2023-11-19T12:52:11;13.15;;;3.33;;
18879;SDS011;9572;52.378;13.404;2023-11-19T12:54:42;15.35;;;3.50;;
18879;SDS011;9572;52.378;13.404;2023-11-19T12:57:11;12.20;;;3.25;;
18879;SDS011;9572;52.378;13.404;2023-11-19T12:59:41;16.13;;;3.67;;
18879;SDS011;9572;52.378;13.404;2023-11-19T13:02:12;22.40;;;3.47;;
18879;SDS011;9572;52.378;13.404;2023-11-19T13:04:46;20.25;;;3.85;;
18879;SDS011;9572;52.378;13.404;2023-11-19T13:07:13;20.65;;;3.63;;
18879;SDS011;9572;52.378;13.404;2023-11-19T13:09:50;14.85;;;3.15;;
18879;SDS011;9572;52.378;13.404;2023-11-19T13:12:22;18.15;;;3.20;;
18879;SDS011;9572;52.378;13.404;2023-11-19T13:14:51;19.35;;;4.07;;
18879;SDS011;9572;52.378;13.404;2023-11-19T13:17:22;22.25;;;4.95;;
18879;SDS011;9572;52.378;13.404;2023-11-19T13:19:57;20.70;;;4.22;;
18879;SDS011;9572;52.378;13.404;2023-11-19T13:22:24;22.17;;;4.55;;
18879;SDS011;9572;52.378;13.404;2023-11-19T13:24:51;18.55;;;3.80;;
18879;SDS011;9572;52.378;13.404;2023-11-19T13:27:22;13.27;;;3.40;;
18879;SDS011;9572;52.378;13.404;2023-11-19T13:29:49;16.17;;;4.30;;
18879;SDS011;9572;52.378;13.404;2023-11-19T13:32:16;19.35;;;3.85;;
18879;SDS011;9572;52.378;13.404;2023-11-19T13:34:43;21.75;;;4.30;;
18879;SDS011;9572;52.378;13.404;2023-11-19T13:37:12;11.95;;;3.10;;
18879;SDS011;9572;52.378;13.404;2023-11-19T13:39:41;15.85;;;3.38;;
18879;SDS011;9572;52.378;13.404;2023-11-19T13:42:08;18.45;;;3.50;;
18879;SDS011;9572;52.378;13.404;2023-11-19T13:44:35;15.95;;;3.63;;
18879;SDS011;9572;52.378;13.404;2023-11-19T13:47:02;20.38;;;3.90;;
18879;SDS011;9572;52.378;13.404;2023-11-19T13:49:29;24.30;;;4.18;;
18879;SDS011;9572;52.378;13.404;2023-11-19T13:51:56;21.75;;;4.35;;
18879;SDS011;9572;52.378;13.404;2023-11-19T13:54:25;18.73;;;3.53;;
18879;SDS011;9572;52.378;13.404;2023-11-19T13:56:54;18.75;;;4.13;;
18879;SDS011;9572;52.378;13.404;2023-11-19T13:59:23;20.48;;;4.82;;
18879;SDS011;9572;52.378;13.404;2023-11-19T14:01:50;18.10;;;3.70;;
18879;SDS011;9572;52.378;13.404;2023-11-19T14:04:17;22.05;;;4.75;;
18879;SDS011;9572;52.378;13.404;2023-11-19T14:06:44;23.95;;;4.00;;
18879;SDS011;9572;52.378;13.404;2023-11-19T14:09:11;23.38;;;3.72;;
18879;SDS011;9572;52.378;13.404;2023-11-19T14:11:40;26.10;;;4.15;;
18879;SDS011;9572;52.378;13.404;2023-11-19T14:14:07;16.58;;;4.03;;
18879;SDS011;9572;52.378;13.404;2023-11-19T14:16:34;18.55;;;3.42;;
18879;SDS011;9572;52.378;13.404;2023-11-19T14:19:02;19.58;;;3.85;;
18879;SDS011;9572;52.378;13.404;2023-11-19T14:21:31;17.98;;;3.88;;
18879;SDS011;9572;52.378;13.404;2023-11-19T14:23:58;21.33;;;3.67;;
18879;SDS011;9572;52.378;13.404;2023-11-19T14:26:25;18.50;;;3.25;;
18879;SDS011;9572;52.378;13.404;2023-11-19T14:28:54;17.10;;;3.20;;
18879;SDS011;9572;52.378;13.404;2023-11-19T14:31:20;19.73;;;4.35;;
18879;SDS011;9572;52.378;13.404;2023-11-19T14:33:47;16.60;;;3.85;;
18879;SDS011;9572;52.378;13.404;2023-11-19T14:36:15;21.58;;;3.83;;
18879;SDS011;9572;52.378;13.404;2023-11-19T14:38:41;21.50;;;3.58;;
18879;SDS011;9572;52.378;13.404;2023-11-19T14:41:08;20.92;;;4.40;;
18879;SDS011;9572;52.378;13.404;2023-11-19T14:43:35;20.90;;;3.92;;
18879;SDS011;9572;52.378;13.404;2023-11-19T14:46:04;22.90;;;4.88;;
18879;SDS011;9572;52.378;13.404;2023-11-19T14:48:31;20.73;;;4.05;;
18879;SDS011;9572;52.378;13.404;2023-11-19T14:50:58;27.95;;;4.25;;
18879;SDS011;9572;52.378;13.404;2023-11-19T14:53:25;24.08;;;4.03;;
18879;SDS011;9572;52.378;13.404;2023-11-19T14:55:52;20.20;;;4.13;;